createdAt,value
2022-12-31T00:02:09.941Z,1.65
2022-12-31T00:06:26.551Z,0.25
2022-12-31T00:10:49.018Z,1.45
2022-12-31T00:15:01.436Z,0.20
2022-12-31T00:19:13.795Z,0.22
2022-12-31T00:23:26.635Z,0.30
2022-12-31T00:27:38.921Z,0.30
2022-12-31T00:32:01.796Z,0.20
2022-12-31T00:36:20.365Z,0.95
2022-12-31T00:40:32.755Z,1.90
2022-12-31T00:44:45.175Z,0.25
2022-12-31T00:48:57.448Z,0.30
2022-12-31T00:53:09.760Z,0.32
2022-12-31T00:57:22.788Z,0.38
2022-12-31T01:01:38.784Z,0.45
2022-12-31T01:05:51.334Z,0.20
2022-12-31T01:10:06.073Z,1.55
2022-12-31T01:14:20.212Z,0.20
2022-12-31T01:18:32.512Z,0.13
2022-12-31T01:22:54.820Z,0.20
2022-12-31T01:27:11.802Z,0.13
2022-12-31T01:31:25.050Z,0.20
2022-12-31T01:35:47.401Z,0.30
2022-12-31T01:40:00.845Z,0.43
2022-12-31T01:44:13.069Z,0.10
2022-12-31T01:48:27.693Z,0.10
2022-12-31T01:52:47.639Z,0.25
2022-12-31T01:57:02.385Z,0.25
2022-12-31T02:01:22.633Z,0.20
2022-12-31T02:05:48.892Z,0.50
2022-12-31T02:10:01.421Z,0.10
2022-12-31T02:14:24.486Z,0.13
2022-12-31T02:18:51.259Z,0.60
2022-12-31T02:23:35.915Z,0.20
2022-12-31T02:28:20.372Z,0.20
2022-12-31T02:32:51.344Z,0.20
2022-12-31T02:37:07.826Z,3.30
2022-12-31T02:41:40.178Z,0.10
2022-12-31T02:46:08.377Z,0.10
2022-12-31T02:50:40.368Z,0.20
2022-12-31T02:55:11.214Z,0.10
2022-12-31T03:00:26.874Z,0.20
2022-12-31T03:04:42.727Z,0.20
2022-12-31T03:09:13.546Z,0.20
2022-12-31T03:13:27.755Z,0.10
2022-12-31T03:17:40.027Z,0.17
2022-12-31T03:22:10.816Z,0.30
2022-12-31T03:26:23.093Z,0.20
2022-12-31T03:30:43.380Z,0.10
2022-12-31T03:34:56.720Z,0.10
2022-12-31T03:39:19.018Z,0.20
2022-12-31T03:43:31.505Z,0.17
2022-12-31T03:47:53.774Z,0.15
2022-12-31T03:52:07.259Z,0.52
2022-12-31T03:56:29.553Z,0.17
2022-12-31T04:00:41.844Z,0.20
2022-12-31T04:04:54.334Z,0.20
2022-12-31T04:09:07.157Z,0.75
2022-12-31T04:13:19.909Z,0.28
2022-12-31T04:17:32.546Z,0.55
2022-12-31T04:21:44.883Z,0.20
2022-12-31T04:25:57.255Z,0.30
2022-12-31T04:30:10.594Z,0.20
2022-12-31T04:34:23.035Z,0.20
2022-12-31T04:38:35.642Z,0.85
2022-12-31T04:42:47.908Z,0.10
2022-12-31T04:47:00.175Z,0.20
2022-12-31T04:51:12.633Z,0.25
2022-12-31T04:55:24.993Z,0.10
2022-12-31T04:59:37.281Z,1.45
2022-12-31T05:03:49.805Z,0.15
2022-12-31T05:08:03.193Z,0.17
2022-12-31T05:12:18.588Z,0.20
2022-12-31T05:16:30.904Z,0.10
2022-12-31T05:20:43.213Z,0.17
2022-12-31T05:24:55.946Z,0.38
2022-12-31T05:29:18.219Z,0.10
2022-12-31T05:33:31.079Z,2.30
2022-12-31T05:37:43.942Z,0.10
2022-12-31T05:41:56.265Z,0.20
2022-12-31T05:46:08.838Z,0.20
2022-12-31T05:50:21.518Z,0.30
2022-12-31T05:54:34.199Z,0.30
2022-12-31T05:58:56.568Z,0.50
2022-12-31T06:03:09.743Z,0.20
2022-12-31T06:07:22.155Z,1.38
2022-12-31T06:11:34.545Z,0.20
2022-12-31T06:15:46.924Z,0.15
2022-12-31T06:20:01.246Z,0.13
2022-12-31T06:24:14.813Z,0.20
2022-12-31T06:28:27.117Z,0.20
2022-12-31T06:32:41.450Z,0.35
2022-12-31T06:36:53.965Z,0.65
2022-12-31T06:41:07.758Z,0.32
2022-12-31T06:45:20.886Z,0.22
2022-12-31T06:49:43.178Z,0.25
2022-12-31T06:53:55.527Z,0.40
2022-12-31T06:58:13.814Z,0.30
2022-12-31T07:03:11.001Z,0.40
2022-12-31T07:07:47.660Z,0.30
2022-12-31T07:12:13.671Z,0.32
2022-12-31T07:16:34.681Z,0.40
2022-12-31T07:20:47.253Z,0.90
2022-12-31T07:25:00.039Z,0.50
2022-12-31T07:29:25.843Z,0.40
2022-12-31T07:33:40.873Z,2.20
2022-12-31T07:38:13.200Z,0.55
2022-12-31T07:42:39.017Z,0.55
2022-12-31T07:46:59.868Z,0.20
2022-12-31T07:51:12.745Z,0.20
2022-12-31T07:55:25.088Z,0.85
2022-12-31T08:00:06.354Z,0.50
2022-12-31T08:04:43.939Z,0.30
2022-12-31T08:09:39.991Z,0.20
2022-12-31T08:13:54.452Z,0.30
2022-12-31T08:18:09.614Z,0.28
2022-12-31T08:22:59.122Z,0.30
2022-12-31T08:27:20.982Z,0.30
2022-12-31T08:31:36.795Z,0.77
2022-12-31T08:35:51.898Z,0.40
2022-12-31T08:40:23.288Z,0.50
2022-12-31T08:44:56.545Z,0.50
2022-12-31T08:49:12.637Z,0.40
2022-12-31T08:53:25.624Z,0.75
2022-12-31T08:58:04.189Z,0.30
2022-12-31T09:02:48.200Z,0.30
2022-12-31T09:07:03.753Z,0.32
2022-12-31T09:11:43.998Z,0.30
2022-12-31T09:16:05.868Z,0.68
2022-12-31T09:20:41.921Z,0.45
2022-12-31T09:24:55.787Z,0.35
2022-12-31T09:29:28.166Z,0.30
2022-12-31T09:33:56.388Z,0.30
2022-12-31T09:38:41.830Z,0.50
2022-12-31T09:43:25.818Z,0.93
2022-12-31T09:48:02.593Z,1.00
2022-12-31T09:52:33.154Z,0.75
2022-12-31T09:57:09.629Z,0.85
2022-12-31T10:01:34.838Z,1.38
2022-12-31T10:06:23.578Z,0.60
2022-12-31T10:10:50.445Z,0.70
2022-12-31T10:15:43.389Z,0.50
2022-12-31T10:20:04.617Z,0.50
2022-12-31T10:24:34.994Z,0.40
2022-12-31T10:29:06.881Z,0.60
2022-12-31T10:33:31.010Z,0.60
2022-12-31T10:37:53.047Z,0.47
2022-12-31T10:42:36.806Z,0.75
2022-12-31T10:47:23.924Z,3.03
2022-12-31T10:52:16.518Z,0.47
2022-12-31T10:56:37.736Z,0.63
2022-12-31T11:01:14.317Z,0.57
2022-12-31T11:05:32.625Z,0.40
2022-12-31T11:10:15.549Z,0.60
2022-12-31T11:15:07.250Z,0.65
2022-12-31T11:19:49.918Z,0.90
2022-12-31T11:24:19.883Z,0.65
2022-12-31T11:28:42.770Z,0.50
2022-12-31T11:33:07.766Z,0.95
2022-12-31T11:37:49.465Z,0.85
2022-12-31T11:42:22.134Z,1.00
2022-12-31T11:46:48.269Z,1.42
2022-12-31T11:51:12.725Z,0.60
2022-12-31T11:55:43.263Z,0.75
2022-12-31T11:59:59.753Z,4.47
2022-12-31T13:02:30.661Z,1.55
2022-12-31T13:06:59.372Z,1.05
2022-12-31T13:11:29.861Z,2.03
2022-12-31T13:15:58.385Z,1.00
2022-12-31T13:20:26.837Z,0.80
2022-12-31T13:25:19.867Z,1.48
2022-12-31T13:29:35.569Z,0.77
2022-12-31T13:34:05.664Z,0.60
2022-12-31T13:38:24.931Z,3.47
2022-12-31T13:42:52.560Z,0.68
2022-12-31T13:47:21.219Z,1.83
2022-12-31T13:51:52.128Z,1.15
2022-12-31T13:56:20.688Z,2.83
2022-12-31T14:00:48.270Z,2.08
2022-12-31T14:05:12.783Z,0.93
2022-12-31T14:09:27.743Z,0.90
2022-12-31T14:13:51.668Z,0.90
2022-12-31T14:18:07.762Z,1.20
2022-12-31T14:22:34.859Z,1.58
2022-12-31T14:26:53.414Z,1.98
2022-12-31T14:31:20.820Z,0.80
2022-12-31T14:35:56.744Z,3.50
2022-12-31T14:40:33.498Z,2.08
2022-12-31T14:45:17.507Z,2.75
2022-12-31T14:49:57.760Z,2.13
2022-12-31T14:54:34.911Z,3.03
2022-12-31T14:58:59.824Z,5.20
2022-12-31T15:03:15.178Z,4.22
2022-12-31T15:07:36.466Z,3.40
2022-12-31T15:12:17.737Z,1.48
2022-12-31T15:16:52.029Z,2.58
2022-12-31T15:21:29.076Z,2.15
2022-12-31T15:25:48.596Z,4.90
2022-12-31T15:30:33.477Z,1.15
2022-12-31T15:34:45.841Z,1.50
2022-12-31T15:39:07.750Z,1.30
2022-12-31T15:43:25.936Z,4.10
2022-12-31T15:47:42.250Z,1.65
2022-12-31T15:52:02.209Z,1.30
2022-12-31T15:56:21.323Z,1.08
2022-12-31T16:05:36.074Z,5.30
2022-12-31T16:09:54.292Z,1.92
2022-12-31T16:14:07.745Z,0.90
2022-12-31T16:18:44.470Z,3.47
2022-12-31T16:23:02.408Z,1.27
2022-12-31T16:27:17.243Z,4.90
2022-12-31T16:31:30.832Z,2.17
2022-12-31T16:35:43.666Z,3.53
2022-12-31T16:39:58.658Z,4.75
2022-12-31T16:44:25.991Z,2.70
2022-12-31T16:48:39.156Z,5.07
2022-12-31T16:53:03.293Z,5.55
2022-12-31T16:57:25.314Z,6.30
2022-12-31T17:01:39.175Z,6.45
2022-12-31T17:05:56.546Z,6.28
2022-12-31T17:10:08.794Z,8.10
2022-12-31T17:14:31.299Z,8.77
2022-12-31T17:18:44.743Z,7.20
2022-12-31T17:23:00.394Z,5.82
2022-12-31T17:27:12.842Z,5.88
2022-12-31T17:31:34.270Z,8.50
2022-12-31T17:35:47.487Z,4.18
2022-12-31T17:40:40.546Z,4.97
2022-12-31T17:44:39.289Z,4.80
2022-12-31T17:48:57.895Z,5.38
2022-12-31T17:53:21.230Z,6.30
2022-12-31T17:57:33.638Z,6.05
2022-12-31T18:01:52.977Z,4.03
2022-12-31T18:06:09.124Z,9.55
2022-12-31T18:10:25.351Z,12.13
2022-12-31T18:14:37.789Z,10.93
2022-12-31T18:19:01.741Z,9.88
2022-12-31T18:23:21.489Z,10.85
2022-12-31T18:27:35.621Z,9.80
2022-12-31T18:31:50.258Z,9.95
2022-12-31T18:36:10.580Z,7.97
2022-12-31T18:40:22.997Z,8.60
2022-12-31T18:44:46.140Z,6.60
2022-12-31T18:48:58.969Z,11.93
2022-12-31T18:53:20.544Z,8.10
2022-12-31T18:57:32.813Z,11.35
2022-12-31T19:01:45.344Z,11.48
2022-12-31T19:05:58.292Z,30.33
2022-12-31T19:10:14.205Z,29.88
2022-12-31T19:14:28.035Z,22.98
2022-12-31T19:18:42.266Z,17.63
2022-12-31T19:22:54.706Z,22.33
2022-12-31T19:27:06.980Z,20.17
2022-12-31T19:31:19.617Z,19.67
2022-12-31T19:35:42.647Z,21.27
2022-12-31T19:39:54.884Z,21.23
2022-12-31T19:44:20.304Z,19.45
2022-12-31T19:48:33.635Z,12.63
2022-12-31T19:52:48.802Z,14.25
2022-12-31T19:57:01.106Z,14.15
2022-12-31T20:01:20.681Z,12.63
2022-12-31T20:05:34.375Z,11.85
2022-12-31T20:09:46.644Z,11.63
2022-12-31T20:13:58.984Z,12.02
2022-12-31T20:18:21.791Z,13.23
2022-12-31T20:22:34.490Z,13.75
2022-12-31T20:26:47.570Z,11.48
2022-12-31T20:31:00.107Z,21.23
2022-12-31T20:35:12.435Z,12.52
2022-12-31T20:39:24.765Z,12.85
2022-12-31T20:43:45.982Z,13.57
2022-12-31T20:47:58.500Z,10.38
2022-12-31T20:52:10.798Z,16.27
2022-12-31T20:56:23.299Z,12.60
2022-12-31T21:00:35.586Z,10.75
2022-12-31T21:04:48.130Z,9.90
2022-12-31T21:09:02.523Z,11.50
2022-12-31T21:13:15.147Z,8.80
2022-12-31T21:17:27.474Z,12.25
2022-12-31T21:21:39.778Z,10.52
2022-12-31T21:25:52.260Z,12.43
2022-12-31T21:30:21.117Z,15.48
2022-12-31T21:34:33.799Z,16.50
2022-12-31T21:38:46.188Z,19.15
2022-12-31T21:43:08.653Z,25.35
2022-12-31T21:47:47.101Z,26.92
2022-12-31T21:52:18.819Z,25.95
2022-12-31T21:56:41.168Z,28.25
2022-12-31T22:01:12.655Z,28.08
2022-12-31T22:05:32.035Z,20.83
2022-12-31T22:09:44.317Z,25.02
2022-12-31T22:14:06.580Z,27.65
2022-12-31T22:18:29.668Z,23.92
2022-12-31T22:22:41.959Z,27.75
2022-12-31T22:26:56.364Z,23.20
2022-12-31T22:31:25.182Z,30.95
2022-12-31T22:35:37.480Z,27.38
2022-12-31T22:39:49.806Z,25.80
2022-12-31T22:44:04.653Z,26.17
2022-12-31T22:48:17.117Z,27.17
2022-12-31T22:52:29.378Z,31.65
2022-12-31T22:56:42.057Z,31.15
2022-12-31T23:00:54.497Z,33.97
2022-12-31T23:05:16.118Z,48.35
2022-12-31T23:09:47.068Z,99.80
2022-12-31T23:14:17.944Z,83.78
2022-12-31T23:18:48.932Z,85.75
2022-12-31T23:23:16.858Z,63.85
2022-12-31T23:27:29.336Z,42.75
2022-12-31T23:31:41.626Z,27.30
2022-12-31T23:36:07.634Z,24.88
2022-12-31T23:40:21.885Z,23.40
2022-12-31T23:44:34.399Z,25.17
2022-12-31T23:48:46.760Z,24.52
2022-12-31T23:52:59.013Z,23.23
2022-12-31T23:57:11.499Z,38.95
